Time;durP1;ratioP1;P1;durP2;ratioP2;P2;SDS_P1;SDS_P2;PMS_P1;PMS_P2;Temp;Humidity;BMP_temperature;BMP_pressure;BME280_temperature;BME280_humidity;BME280_pressure;Samples;Min_cycle;Max_cycle;Signal;HPM_P1;HPM_P2
2022/07/06 00:00:12;;;;;;;8.38;5.68;;;;;;;;;;5115888;28;20047;-73
2022/07/06 00:02:38;;;;;;;6.88;5.07;;;;;;;;;;5115960;28;20493;-73
2022/07/06 00:05:04;;;;;;;5.95;4.90;;;;;;;;;;5097727;28;20028;-73
2022/07/06 00:07:30;;;;;;;7.18;4.45;;;;;;;;;;5115600;28;20084;-73
2022/07/06 00:09:58;;;;;;;5.32;4.03;;;;;;;;;;5097560;28;20032;-73
2022/07/06 00:12:24;;;;;;;8.18;4.20;;;;;;;;;;5097358;28;20027;-73
2022/07/06 00:14:50;;;;;;;5.78;4.10;;;;;;;;;;5115669;28;20023;-73
2022/07/06 00:17:16;;;;;;;6.25;4.30;;;;;;;;;;5115637;28;20023;-74
2022/07/06 00:19:42;;;;;;;6.57;3.85;;;;;;;;;;5096823;28;20031;-73
2022/07/06 00:22:08;;;;;;;8.30;3.97;;;;;;;;;;5115592;28;20443;-73
2022/07/06 00:24:34;;;;;;;4.40;3.78;;;;;;;;;;5115583;28;20024;-73
2022/07/06 00:27:00;;;;;;;5.20;3.67;;;;;;;;;;5115828;28;20028;-73
2022/07/06 00:29:26;;;;;;;5.55;4.07;;;;;;;;;;5115293;28;20024;-74
2022/07/06 00:31:52;;;;;;;4.55;3.70;;;;;;;;;;5114966;28;20027;-73
2022/07/06 00:34:18;;;;;;;7.80;3.90;;;;;;;;;;5115366;28;20072;-73
2022/07/06 00:36:44;;;;;;;5.75;4.00;;;;;;;;;;5115442;28;20444;-73
2022/07/06 00:39:10;;;;;;;5.78;3.92;;;;;;;;;;5115245;28;20016;-73
2022/07/06 00:41:36;;;;;;;6.15;4.30;;;;;;;;;;5115044;28;20023;-74
2022/07/06 00:44:07;;;;;;;8.50;4.88;;;;;;;;;;5115048;28;20035;-73
2022/07/06 00:46:33;;;;;;;9.85;4.80;;;;;;;;;;5115110;28;20051;-74
2022/07/06 00:49:02;;;;;;;5.32;3.90;;;;;;;;;;5114107;28;20031;-73
2022/07/06 00:51:32;;;;;;;8.25;4.78;;;;;;;;;;5114661;28;20470;-73
2022/07/06 00:54:00;;;;;;;7.57;4.90;;;;;;;;;;5114833;28;20115;-73
2022/07/06 00:56:27;;;;;;;9.77;5.25;;;;;;;;;;5114490;28;20174;-73
2022/07/06 00:58:53;;;;;;;7.63;4.75;;;;;;;;;;5095459;28;20027;-72
2022/07/06 01:01:19;;;;;;;7.45;4.00;;;;;;;;;;5096380;28;20528;-73
2022/07/06 01:03:45;;;;;;;7.22;4.15;;;;;;;;;;5095989;28;20081;-73
2022/07/06 01:06:11;;;;;;;7.25;4.05;;;;;;;;;;5114615;28;20034;-73
2022/07/06 01:08:38;;;;;;;7.40;3.83;;;;;;;;;;5114566;28;20016;-72
2022/07/06 01:11:04;;;;;;;6.28;3.78;;;;;;;;;;5114088;28;20392;-73
2022/07/06 01:13:31;;;;;;;7.55;3.90;;;;;;;;;;5125611;22;20055;-85
2022/07/06 01:15:58;;;;;;;6.75;4.40;;;;;;;;;;5096987;28;20371;-81
2022/07/06 01:18:24;;;;;;;5.28;4.00;;;;;;;;;;5096370;28;20039;-85
2022/07/06 01:20:50;;;;;;;6.78;3.92;;;;;;;;;;5114886;28;20051;-84
2022/07/06 01:23:16;;;;;;;5.97;3.97;;;;;;;;;;5114854;28;20038;-85
2022/07/06 01:25:42;;;;;;;6.80;4.00;;;;;;;;;;5114894;28;20038;-85
2022/07/06 01:28:09;;;;;;;6.13;4.05;;;;;;;;;;5096766;28;20085;-85
2022/07/06 01:30:35;;;;;;;4.47;3.63;;;;;;;;;;5114720;28;20066;-85
2022/07/06 01:33:01;;;;;;;6.53;3.83;;;;;;;;;;5114731;28;20024;-85
2022/07/06 01:35:29;;;;;;;6.32;4.00;;;;;;;;;;5114497;28;20268;-85
2022/07/06 01:37:55;;;;;;;7.53;3.83;;;;;;;;;;5114634;28;20022;-85
2022/07/06 01:40:21;;;;;;;5.63;3.78;;;;;;;;;;5114709;28;20057;-85
2022/07/06 01:42:48;;;;;;;7.15;3.58;;;;;;;;;;5114734;28;20103;-85
2022/07/06 01:45:14;;;;;;;5.13;3.65;;;;;;;;;;5114588;28;20032;-85
2022/07/06 01:47:40;;;;;;;7.13;4.07;;;;;;;;;;5114806;28;20019;-85
2022/07/06 01:50:07;;;;;;;3.97;3.15;;;;;;;;;;5114316;28;20032;-85
2022/07/06 01:52:33;;;;;;;4.15;3.25;;;;;;;;;;5114611;28;20023;-86
2022/07/06 01:54:59;;;;;;;3.95;3.55;;;;;;;;;;5114680;28;20141;-85
2022/07/06 01:57:25;;;;;;;6.40;3.85;;;;;;;;;;5114552;28;20020;-86
2022/07/06 01:59:51;;;;;;;4.82;3.30;;;;;;;;;;5113793;28;20414;-86
2022/07/06 02:02:18;;;;;;;4.80;3.20;;;;;;;;;;5114154;28;20031;-84
2022/07/06 02:04:44;;;;;;;5.00;3.85;;;;;;;;;;5114297;28;20028;-86
2022/07/06 02:07:10;;;;;;;4.68;3.75;;;;;;;;;;5114136;28;20366;-82
2022/07/06 02:09:36;;;;;;;5.57;3.42;;;;;;;;;;5114292;28;20030;-86
2022/07/06 02:12:02;;;;;;;4.80;3.53;;;;;;;;;;5114216;28;20107;-85
2022/07/06 02:14:28;;;;;;;5.93;3.05;;;;;;;;;;5114346;28;20407;-85
2022/07/06 02:16:54;;;;;;;6.13;3.25;;;;;;;;;;5114234;28;20024;-83
2022/07/06 02:19:20;;;;;;;5.32;3.22;;;;;;;;;;5114188;28;20099;-86
2022/07/06 02:21:46;;;;;;;4.28;3.50;;;;;;;;;;5114029;28;20227;-86
2022/07/06 02:24:13;;;;;;;6.78;3.75;;;;;;;;;;5114101;28;20032;-86
2022/07/06 02:26:39;;;;;;;5.25;3.33;;;;;;;;;;5113848;28;20055;-82
2022/07/06 02:29:05;;;;;;;3.97;3.30;;;;;;;;;;5114160;28;20031;-86
2022/07/06 02:31:31;;;;;;;6.30;3.75;;;;;;;;;;5113942;28;20036;-85
2022/07/06 02:33:57;;;;;;;6.78;4.68;;;;;;;;;;5113991;28;20629;-85
2022/07/06 02:36:23;;;;;;;5.65;3.50;;;;;;;;;;5113948;28;20485;-85
2022/07/06 02:38:49;;;;;;;8.60;3.72;;;;;;;;;;5114081;28;20377;-85
2022/07/06 02:41:15;;;;;;;5.30;3.55;;;;;;;;;;5113938;28;20020;-85
2022/07/06 02:43:41;;;;;;;4.75;3.55;;;;;;;;;;5113856;28;20474;-86
2022/07/06 02:46:08;;;;;;;5.88;3.58;;;;;;;;;;5114258;28;20024;-86
2022/07/06 02:48:34;;;;;;;8.40;3.38;;;;;;;;;;5113935;28;20028;-86
2022/07/06 02:51:00;;;;;;;6.43;3.50;;;;;;;;;;5113732;28;20032;-85
2022/07/06 02:53:26;;;;;;;4.70;3.55;;;;;;;;;;5114286;28;20055;-86
2022/07/06 02:55:52;;;;;;;7.00;3.63;;;;;;;;;;5113767;28;20030;-84
2022/07/06 02:58:18;;;;;;;5.05;3.10;;;;;;;;;;5113848;28;20081;-84
2022/07/06 03:00:44;;;;;;;5.72;3.42;;;;;;;;;;5113715;28;20028;-85
2022/07/06 03:03:10;;;;;;;4.80;3.80;;;;;;;;;;5095486;28;20489;-85
2022/07/06 03:05:36;;;;;;;8.40;4.18;;;;;;;;;;5113793;28;20047;-85
2022/07/06 03:08:02;;;;;;;8.10;3.63;;;;;;;;;;5113524;28;20437;-85
2022/07/06 03:10:28;;;;;;;4.43;3.40;;;;;;;;;;5113432;28;20032;-84
2022/07/06 03:12:55;;;;;;;4.22;3.70;;;;;;;;;;5116404;28;20542;-85
2022/07/06 03:15:21;;;;;;;8.43;3.80;;;;;;;;;;5117317;28;20034;-86
2022/07/06 03:17:47;;;;;;;3.97;3.22;;;;;;;;;;5117497;28;20095;-86
2022/07/06 03:20:13;;;;;;;5.38;3.50;;;;;;;;;;5117275;28;20024;-86
2022/07/06 03:22:39;;;;;;;5.40;3.65;;;;;;;;;;5117310;28;20023;-85
2022/07/06 03:25:06;;;;;;;6.25;4.40;;;;;;;;;;5117379;28;20469;-86
2022/07/06 03:27:33;;;;;;;5.90;4.03;;;;;;;;;;5117262;28;20068;-85
2022/07/06 03:29:59;;;;;;;7.13;3.47;;;;;;;;;;5116989;28;20114;-85
2022/07/06 03:32:25;;;;;;;5.03;3.95;;;;;;;;;;5116976;28;20046;-85
2022/07/06 03:34:51;;;;;;;4.13;3.70;;;;;;;;;;5117028;28;20031;-85
2022/07/06 03:37:17;;;;;;;8.77;4.50;;;;;;;;;;5116886;28;20034;-84
2022/07/06 03:39:44;;;;;;;6.40;4.10;;;;;;;;;;5116946;28;20095;-85
2022/07/06 03:42:10;;;;;;;7.13;4.00;;;;;;;;;;5116817;28;20031;-85
2022/07/06 03:44:36;;;;;;;7.05;3.95;;;;;;;;;;5117067;28;20020;-85
2022/07/06 03:47:02;;;;;;;6.63;4.15;;;;;;;;;;5116873;28;20027;-85
2022/07/06 03:49:28;;;;;;;11.93;6.53;;;;;;;;;;5116707;28;20052;-86
2022/07/06 03:51:54;;;;;;;6.78;5.43;;;;;;;;;;5116596;28;20030;-85
2022/07/06 03:54:20;;;;;;;8.65;4.57;;;;;;;;;;5098680;28;20027;-77
2022/07/06 03:56:46;;;;;;;7.43;4.40;;;;;;;;;;5116540;28;20028;-85
2022/07/06 03:59:14;;;;;;;5.63;4.47;;;;;;;;;;5098343;28;20123;-84
2022/07/06 04:01:40;;;;;;;8.70;4.25;;;;;;;;;;5116386;28;20043;-85
2022/07/06 04:04:06;;;;;;;5.93;4.10;;;;;;;;;;5116353;28;20034;-85
2022/07/06 04:06:34;;;;;;;10.65;4.53;;;;;;;;;;5116347;28;20473;-85
2022/07/06 04:09:00;;;;;;;8.18;4.30;;;;;;;;;;5098005;28;20385;-85
2022/07/06 04:11:26;;;;;;;6.70;3.90;;;;;;;;;;5116287;28;21769;-85
2022/07/06 04:13:54;;;;;;;6.07;4.07;;;;;;;;;;5116175;28;20046;-85
2022/07/06 04:16:20;;;;;;;8.65;4.53;;;;;;;;;;5116176;28;20020;-85
2022/07/06 04:18:46;;;;;;;8.02;4.28;;;;;;;;;;5116102;28;20020;-85
2022/07/06 04:21:12;;;;;;;7.00;4.40;;;;;;;;;;5115929;28;20034;-85
2022/07/06 04:23:38;;;;;;;6.55;4.55;;;;;;;;;;5114919;28;20464;-84
2022/07/06 04:26:04;;;;;;;7.97;4.13;;;;;;;;;;5116000;28;20435;-83
2022/07/06 04:28:31;;;;;;;6.10;4.70;;;;;;;;;;5115890;28;20076;-83
2022/07/06 04:30:57;;;;;;;5.60;4.60;;;;;;;;;;5115936;28;20457;-86
2022/07/06 04:33:23;;;;;;;8.38;5.60;;;;;;;;;;5115688;28;20064;-85
2022/07/06 04:35:49;;;;;;;5.82;4.40;;;;;;;;;;5115850;28;20059;-85
2022/07/06 04:38:15;;;;;;;8.88;4.45;;;;;;;;;;5115892;28;20015;-85
2022/07/06 04:40:41;;;;;;;8.60;6.30;;;;;;;;;;5115629;28;20061;-86
2022/07/06 04:43:07;;;;;;;10.45;5.10;;;;;;;;;;5115882;28;20389;-85
2022/07/06 04:45:33;;;;;;;8.07;5.03;;;;;;;;;;5115773;28;20023;-86
2022/07/06 04:47:59;;;;;;;7.25;4.43;;;;;;;;;;5096326;28;20032;-83
2022/07/06 04:50:25;;;;;;;9.98;5.28;;;;;;;;;;5115074;28;20488;-84
2022/07/06 04:52:51;;;;;;;6.68;4.60;;;;;;;;;;5115374;28;20446;-85
2022/07/06 04:55:17;;;;;;;6.65;4.00;;;;;;;;;;5115665;28;20572;-85
2022/07/06 04:57:43;;;;;;;6.15;3.60;;;;;;;;;;5115397;28;20027;-85
2022/07/06 05:00:10;;;;;;;6.55;4.75;;;;;;;;;;5115384;28;20030;-85
2022/07/06 05:02:36;;;;;;;6.70;3.83;;;;;;;;;;5097321;28;20063;-86
2022/07/06 05:05:03;;;;;;;8.07;4.60;;;;;;;;;;5115415;28;20469;-84
2022/07/06 05:07:30;;;;;;;5.78;3.90;;;;;;;;;;5115112;28;20055;-85
2022/07/06 05:09:57;;;;;;;5.68;3.90;;;;;;;;;;5115137;28;20020;-86
2022/07/06 05:12:23;;;;;;;8.02;4.05;;;;;;;;;;5115034;28;20094;-85
2022/07/06 05:14:49;;;;;;;6.15;4.45;;;;;;;;;;5096823;28;20035;-86
2022/07/06 05:17:15;;;;;;;7.95;3.90;;;;;;;;;;5115161;28;20120;-85
2022/07/06 05:19:41;;;;;;;5.97;5.13;;;;;;;;;;5115063;28;20029;-85
2022/07/06 05:22:07;;;;;;;5.53;3.97;;;;;;;;;;5096310;28;20531;-85
2022/07/06 05:24:33;;;;;;;6.03;4.43;;;;;;;;;;5114718;28;20020;-84
2022/07/06 05:26:59;;;;;;;4.88;4.18;;;;;;;;;;5114730;28;20103;-84
2022/07/06 05:29:25;;;;;;;7.60;4.50;;;;;;;;;;5114576;28;20038;-85
2022/07/06 05:31:51;;;;;;;7.07;4.22;;;;;;;;;;5114477;28;20110;-83
2022/07/06 05:34:17;;;;;;;6.68;4.20;;;;;;;;;;5114391;28;20020;-82
2022/07/06 05:36:44;;;;;;;8.57;4.40;;;;;;;;;;5114488;28;20024;-80
2022/07/06 05:39:10;;;;;;;9.38;4.65;;;;;;;;;;5114572;28;20026;-85
2022/07/06 05:41:36;;;;;;;7.68;5.20;;;;;;;;;;5114642;28;20032;-85
2022/07/06 05:44:02;;;;;;;8.15;4.68;;;;;;;;;;5114401;28;20024;-84
2022/07/06 05:46:28;;;;;;;8.00;4.82;;;;;;;;;;5114366;28;20028;-83
2022/07/06 05:51:38;;;;;;;8.65;4.38;;;;;;;;;;5114326;28;20042;-84
2022/07/06 05:54:04;;;;;;;5.82;5.22;;;;;;;;;;5114278;28;20019;-85
2022/07/06 05:56:30;;;;;;;6.70;4.35;;;;;;;;;;5114260;28;20024;-85
2022/07/06 05:58:56;;;;;;;7.28;4.93;;;;;;;;;;5114179;28;20028;-86
2022/07/06 06:01:22;;;;;;;6.55;4.55;;;;;;;;;;5114245;28;20073;-85
2022/07/06 06:03:48;;;;;;;8.77;4.75;;;;;;;;;;5114061;28;20469;-84
2022/07/06 06:06:15;;;;;;;7.07;4.10;;;;;;;;;;5113824;28;20103;-85
2022/07/06 06:08:41;;;;;;;5.47;4.03;;;;;;;;;;5113980;28;20035;-85
2022/07/06 06:11:07;;;;;;;7.32;4.43;;;;;;;;;;5113780;28;20032;-80
2022/07/06 06:13:33;;;;;;;7.15;4.88;;;;;;;;;;5114175;28;20052;-84
2022/07/06 06:15:59;;;;;;;7.22;4.05;;;;;;;;;;5113998;28;20028;-78
2022/07/06 06:18:25;;;;;;;7.57;4.00;;;;;;;;;;5095296;28;20027;-82
2022/07/06 06:20:51;;;;;;;9.75;5.00;;;;;;;;;;5114019;28;20051;-76
2022/07/06 06:23:17;;;;;;;9.45;4.32;;;;;;;;;;5114010;28;20098;-84
2022/07/06 06:25:43;;;;;;;7.50;4.50;;;;;;;;;;5114031;28;20016;-85
2022/07/06 06:28:10;;;;;;;13.18;4.65;;;;;;;;;;5114107;28;20461;-85
2022/07/06 06:30:37;;;;;;;4.97;4.10;;;;;;;;;;5113754;28;20078;-86
2022/07/06 06:33:13;;;;;;;5.85;4.30;;;;;;;;;;5095721;28;20465;-85
2022/07/06 06:35:43;;;;;;;10.15;4.55;;;;;;;;;;5113878;28;20473;-85
2022/07/06 06:38:09;;;;;;;5.75;4.10;;;;;;;;;;5113835;28;20028;-83
2022/07/06 06:40:35;;;;;;;6.20;4.32;;;;;;;;;;5114035;28;20028;-86
2022/07/06 06:43:01;;;;;;;5.68;4.40;;;;;;;;;;5114332;28;20058;-85
2022/07/06 06:45:27;;;;;;;6.22;5.15;;;;;;;;;;5114102;28;20032;-79
2022/07/06 06:47:53;;;;;;;5.32;4.80;;;;;;;;;;5117180;28;20106;-85
2022/07/06 06:50:19;;;;;;;7.18;5.60;;;;;;;;;;5117728;28;20110;-84
2022/07/06 06:52:45;;;;;;;5.82;5.20;;;;;;;;;;5117979;28;20020;-84
2022/07/06 06:55:11;;;;;;;8.32;4.53;;;;;;;;;;5117369;28;20061;-85
2022/07/06 06:57:38;;;;;;;6.55;4.80;;;;;;;;;;5117819;28;20019;-85
2022/07/06 07:00:04;;;;;;;4.80;4.30;;;;;;;;;;5117868;28;20020;-85
2022/07/06 07:02:30;;;;;;;11.90;5.60;;;;;;;;;;5117161;28;20016;-82
2022/07/06 07:04:56;;;;;;;7.53;4.68;;;;;;;;;;5117113;28;20055;-83
2022/07/06 07:07:22;;;;;;;5.03;4.20;;;;;;;;;;5117420;28;20042;-86
2022/07/06 07:09:48;;;;;;;7.07;4.50;;;;;;;;;;5117044;28;20073;-85
2022/07/06 07:12:16;;;;;;;12.40;5.80;;;;;;;;;;5117281;28;20370;-85
2022/07/06 07:14:43;;;;;;;6.78;5.35;;;;;;;;;;5117533;28;20024;-83
2022/07/06 07:17:10;;;;;;;8.02;5.35;;;;;;;;;;5117220;28;20026;-85
2022/07/06 07:19:36;;;;;;;7.38;4.82;;;;;;;;;;5117369;28;20024;-86
2022/07/06 07:22:02;;;;;;;5.97;4.50;;;;;;;;;;5117293;28;20023;-85
2022/07/06 07:24:28;;;;;;;6.35;4.65;;;;;;;;;;5117096;28;20104;-85
2022/07/06 07:26:54;;;;;;;9.07;4.47;;;;;;;;;;5117131;28;20030;-85
2022/07/06 07:29:20;;;;;;;8.38;5.28;;;;;;;;;;5116741;28;20016;-83
2022/07/06 07:31:47;;;;;;;5.22;4.70;;;;;;;;;;5116718;28;20036;-85
2022/07/06 07:34:13;;;;;;;5.95;4.35;;;;;;;;;;5116932;28;20099;-85
2022/07/06 07:36:39;;;;;;;6.65;4.93;;;;;;;;;;5116824;28;20034;-85
2022/07/06 07:39:05;;;;;;;8.60;6.07;;;;;;;;;;5116589;28;20019;-84
2022/07/06 07:41:31;;;;;;;7.13;5.00;;;;;;;;;;5116687;28;20043;-85
2022/07/06 07:43:57;;;;;;;5.45;4.30;;;;;;;;;;5116427;28;20016;-84
2022/07/06 07:46:23;;;;;;;6.25;4.70;;;;;;;;;;5116810;28;20034;-85
2022/07/06 07:48:49;;;;;;;5.10;3.92;;;;;;;;;;5116780;28;20019;-85
2022/07/06 07:51:15;;;;;;;5.60;4.20;;;;;;;;;;5116713;28;20052;-82
2022/07/06 07:53:42;;;;;;;8.65;4.25;;;;;;;;;;5116627;28;20019;-86
2022/07/06 07:56:08;;;;;;;5.68;4.13;;;;;;;;;;5098656;28;20031;-84
2022/07/06 07:58:34;;;;;;;5.75;4.55;;;;;;;;;;5097786;28;20035;-86
2022/07/06 08:01:00;;;;;;;6.43;3.50;;;;;;;;;;5116373;28;20038;-83
2022/07/06 08:03:27;;;;;;;4.35;3.20;;;;;;;;;;5116391;28;20034;-87
2022/07/06 08:05:53;;;;;;;6.10;3.15;;;;;;;;;;5116115;28;20542;-81
2022/07/06 08:08:19;;;;;;;9.57;3.83;;;;;;;;;;5116496;28;20028;-85
2022/07/06 08:10:45;;;;;;;4.55;3.45;;;;;;;;;;5098220;28;20039;-86
2022/07/06 08:13:11;;;;;;;4.93;3.85;;;;;;;;;;5116729;28;20044;-85
2022/07/06 08:15:37;;;;;;;5.15;3.95;;;;;;;;;;5119126;28;20034;-85
2022/07/06 08:18:04;;;;;;;3.65;3.30;;;;;;;;;;5117955;28;20016;-84
2022/07/06 08:20:30;;;;;;;5.97;3.75;;;;;;;;;;5116450;28;20016;-86
2022/07/06 08:22:56;;;;;;;4.82;3.78;;;;;;;;;;5116189;28;20465;-83
2022/07/06 08:25:22;;;;;;;4.65;3.30;;;;;;;;;;5115781;28;20023;-86
2022/07/06 08:27:48;;;;;;;5.72;3.95;;;;;;;;;;5116059;28;20027;-86
2022/07/06 08:30:15;;;;;;;8.25;3.63;;;;;;;;;;5115786;28;20027;-87
2022/07/06 08:32:41;;;;;;;4.35;3.30;;;;;;;;;;5115687;28;20028;-86
2022/07/06 08:35:08;;;;;;;3.85;3.20;;;;;;;;;;5097287;28;20019;-85
2022/07/06 08:37:34;;;;;;;11.80;4.40;;;;;;;;;;5115466;28;20027;-87
2022/07/06 08:40:00;;;;;;;12.50;4.05;;;;;;;;;;5115400;28;20532;-87
2022/07/06 08:42:30;;;;;;;7.25;3.60;;;;;;;;;;5115810;28;20074;-82
2022/07/06 08:44:59;;;;;;;7.65;3.92;;;;;;;;;;5096941;28;20088;-87
2022/07/06 08:47:26;;;;;;;5.28;3.70;;;;;;;;;;5115618;28;20023;-87
2022/07/06 08:49:53;;;;;;;6.57;3.60;;;;;;;;;;5115663;28;20465;-86
2022/07/06 08:52:19;;;;;;;4.57;3.70;;;;;;;;;;5115588;28;20098;-87
2022/07/06 08:54:45;;;;;;;4.38;3.50;;;;;;;;;;5097089;28;20020;-82
2022/07/06 08:57:11;;;;;;;5.97;4.20;;;;;;;;;;5115385;28;20066;-87
2022/07/06 08:59:39;;;;;;;4.53;3.63;;;;;;;;;;5097089;28;20072;-87
2022/07/06 09:02:05;;;;;;;7.47;3.58;;;;;;;;;;5115480;28;20020;-87
2022/07/06 09:04:33;;;;;;;7.90;3.60;;;;;;;;;;5115230;28;20517;-87
2022/07/06 09:07:00;;;;;;;7.28;2.97;;;;;;;;;;5114872;28;20015;-84
2022/07/06 09:09:26;;;;;;;8.27;3.47;;;;;;;;;;5114100;28;20028;-82
2022/07/06 09:11:52;;;;;;;4.45;2.78;;;;;;;;;;5114899;28;20039;-87
2022/07/06 09:14:19;;;;;;;7.63;5.80;;;;;;;;;;5115228;28;20101;-86
2022/07/06 09:16:46;;;;;;;5.03;3.85;;;;;;;;;;5114610;28;20073;-83
2022/07/06 09:19:13;;;;;;;3.22;2.90;;;;;;;;;;5114490;28;20044;-82
2022/07/06 09:21:41;;;;;;;4.97;3.35;;;;;;;;;;5114839;28;20024;-85
2022/07/06 09:24:10;;;;;;;8.23;4.00;;;;;;;;;;5096786;28;20043;-87
2022/07/06 09:26:36;;;;;;;3.25;2.92;;;;;;;;;;5115141;28;20027;-86
2022/07/06 09:29:02;;;;;;;4.85;2.80;;;;;;;;;;5114805;28;20030;-87
2022/07/06 09:31:28;;;;;;;5.65;2.92;;;;;;;;;;5114291;28;20065;-82
2022/07/06 09:33:54;;;;;;;5.18;2.83;;;;;;;;;;5114625;28;20020;-83
2022/07/06 09:36:41;;;;;;;4.07;2.97;;;;;;;;;;5114352;28;20024;-83
2022/07/06 09:39:19;;;;;;;5.68;3.30;;;;;;;;;;5114399;28;20015;-86
2022/07/06 09:41:46;;;;;;;5.18;2.70;;;;;;;;;;5114626;28;20085;-75
2022/07/06 09:44:12;;;;;;;5.35;2.53;;;;;;;;;;5113839;28;20469;-82
2022/07/06 09:46:42;;;;;;;3.00;2.47;;;;;;;;;;5114005;28;20065;-81
2022/07/06 09:49:08;;;;;;;4.07;2.40;;;;;;;;;;5114678;28;20028;-84
2022/07/06 09:51:37;;;;;;;3.10;2.55;;;;;;;;;;5114500;28;20027;-83
2022/07/06 09:54:10;;;;;;;3.97;2.80;;;;;;;;;;5113722;28;20054;-82
2022/07/06 09:56:39;;;;;;;3.70;2.50;;;;;;;;;;5114042;28;20477;-82
2022/07/06 09:59:09;;;;;;;5.32;2.35;;;;;;;;;;5113784;28;20109;-82
2022/07/06 10:01:36;;;;;;;4.65;2.60;;;;;;;;;;5114106;28;20023;-80
2022/07/06 10:04:02;;;;;;;8.90;2.90;;;;;;;;;;5113698;28;20111;-82
2022/07/06 10:06:28;;;;;;;4.30;3.15;;;;;;;;;;5113574;28;20019;-82
2022/07/06 10:08:55;;;;;;;4.38;2.75;;;;;;;;;;5113640;28;20106;-82
2022/07/06 10:11:22;;;;;;;6.63;2.70;;;;;;;;;;5113491;28;20074;-83
2022/07/06 10:13:49;;;;;;;5.28;2.70;;;;;;;;;;5113652;28;20568;-79
2022/07/06 10:16:15;;;;;;;3.05;2.75;;;;;;;;;;5114542;28;20028;-83
2022/07/06 10:18:42;;;;;;;6.88;2.40;;;;;;;;;;5114255;28;20100;-84
2022/07/06 10:21:08;;;;;;;4.65;3.20;;;;;;;;;;5113673;28;20145;-82
2022/07/06 10:23:36;;;;;;;3.40;2.83;;;;;;;;;;5118085;28;20030;-86
2022/07/06 10:26:02;;;;;;;5.65;2.65;;;;;;;;;;5118316;28;20500;-85
2022/07/06 10:28:29;;;;;;;4.57;2.97;;;;;;;;;;5118294;28;20027;-84
2022/07/06 10:30:56;;;;;;;2.85;2.55;;;;;;;;;;5118281;28;20039;-85
2022/07/06 10:33:22;;;;;;;6.97;3.60;;;;;;;;;;5117448;28;20022;-81
2022/07/06 10:35:50;;;;;;;4.32;2.85;;;;;;;;;;5117606;28;20030;-81
2022/07/06 10:38:17;;;;;;;6.57;4.28;;;;;;;;;;5117653;28;20110;-81
2022/07/06 10:43:33;;;;;;;10.30;8.30;;;;;;;;;;5118363;28;20109;-85
2022/07/06 10:46:00;;;;;;;5.03;4.20;;;;;;;;;;5099140;28;20032;-84
2022/07/06 10:48:34;;;;;;;4.75;3.35;;;;;;;;;;5117997;28;20024;-84
2022/07/06 10:51:02;;;;;;;4.97;3.22;;;;;;;;;;5117572;28;20039;-83
2022/07/06 10:53:33;;;;;;;4.57;3.40;;;;;;;;;;5117578;28;20027;-82
2022/07/06 10:55:59;;;;;;;6.43;3.92;;;;;;;;;;5117163;28;20019;-79
2022/07/06 10:58:43;;;;;;;8.65;3.70;;;;;;;;;;5116769;28;20031;-80
2022/07/06 11:01:10;;;;;;;7.10;3.65;;;;;;;;;;5117300;28;20095;-81
2022/07/06 11:03:44;;;;;;;5.28;3.22;;;;;;;;;;5116939;28;20016;-80
2022/07/06 11:06:14;;;;;;;5.60;3.90;;;;;;;;;;5117420;28;20028;-80
2022/07/06 11:08:44;;;;;;;5.20;3.58;;;;;;;;;;5117184;28;20030;-81
2022/07/06 11:11:19;;;;;;;4.32;3.17;;;;;;;;;;5117514;28;20482;-84
2022/07/06 11:13:53;;;;;;;4.75;3.47;;;;;;;;;;5116589;28;20032;-81
2022/07/06 11:16:20;;;;;;;6.72;3.30;;;;;;;;;;5117128;28;20377;-81
2022/07/06 11:19:06;;;;;;;7.35;3.30;;;;;;;;;;5098363;28;20545;-83
2022/07/06 11:21:44;;;;;;;14.15;3.88;;;;;;;;;;5116845;28;20027;-81
2022/07/06 11:24:11;;;;;;;5.55;3.00;;;;;;;;;;5116836;28;20110;-81
2022/07/06 11:26:38;;;;;;;11.35;3.30;;;;;;;;;;5118401;28;20027;-83
2022/07/06 11:29:06;;;;;;;6.10;3.75;;;;;;;;;;5116783;28;20020;-80
2022/07/06 11:31:39;;;;;;;6.68;3.15;;;;;;;;;;5116652;28;20032;-81
2022/07/06 11:34:06;;;;;;;3.92;2.55;;;;;;;;;;5116186;28;20020;-82
2022/07/06 11:36:32;;;;;;;6.88;2.92;;;;;;;;;;5116455;28;20053;-82
2022/07/06 11:38:59;;;;;;;3.38;2.90;;;;;;;;;;5117128;28;20057;-85
2022/07/06 11:41:25;;;;;;;8.05;4.05;;;;;;;;;;5116412;28;20485;-80
2022/07/06 11:43:52;;;;;;;6.80;3.35;;;;;;;;;;5116437;28;20482;-81
2022/07/06 11:46:22;;;;;;;9.07;8.07;;;;;;;;;;5116598;28;20024;-83
2022/07/06 11:48:48;;;;;;;5.13;4.40;;;;;;;;;;5116320;28;20084;-81
2022/07/06 11:51:15;;;;;;;5.97;3.72;;;;;;;;;;5116254;28;20396;-80
2022/07/06 11:53:49;;;;;;;3.42;3.03;;;;;;;;;;5117964;28;20020;-81
2022/07/06 11:56:18;;;;;;;6.03;4.30;;;;;;;;;;5116123;28;20027;-82
2022/07/06 11:58:46;;;;;;;6.18;3.67;;;;;;;;;;5116158;28;20100;-74
2022/07/06 12:01:13;;;;;;;4.38;3.22;;;;;;;;;;5116097;28;20027;-81
2022/07/06 12:03:39;;;;;;;6.65;3.30;;;;;;;;;;5116129;28;20388;-80
2022/07/06 12:06:06;;;;;;;4.95;3.28;;;;;;;;;;5116715;28;20040;-85
2022/07/06 12:08:33;;;;;;;6.40;3.33;;;;;;;;;;5116024;28;20016;-81
2022/07/06 12:11:00;;;;;;;7.30;3.47;;;;;;;;;;5097650;28;20050;-77
2022/07/06 12:13:26;;;;;;;3.70;2.88;;;;;;;;;;5095002;28;20045;-81
2022/07/06 12:15:52;;;;;;;5.63;2.90;;;;;;;;;;5095490;28;20085;-82
2022/07/06 12:18:18;;;;;;;4.00;3.20;;;;;;;;;;5095472;28;20020;-81
2022/07/06 12:20:44;;;;;;;5.57;3.65;;;;;;;;;;5095385;28;20084;-80
2022/07/06 12:23:10;;;;;;;4.22;3.22;;;;;;;;;;5095285;28;20020;-80
2022/07/06 12:25:37;;;;;;;4.43;3.70;;;;;;;;;;5095908;28;20031;-81
2022/07/06 12:28:03;;;;;;;5.25;3.38;;;;;;;;;;5095249;28;20025;-83
2022/07/06 12:30:30;;;;;;;3.55;3.00;;;;;;;;;;5095111;28;20028;-81
2022/07/06 12:33:15;;;;;;;3.90;3.50;;;;;;;;;;5095510;28;20513;-82
2022/07/06 12:35:42;;;;;;;5.80;3.13;;;;;;;;;;5095881;28;20034;-83
2022/07/06 12:38:08;;;;;;;4.53;3.65;;;;;;;;;;5095688;28;20024;-84
2022/07/06 12:40:36;;;;;;;5.03;3.58;;;;;;;;;;5095212;28;20081;-85
2022/07/06 12:43:02;;;;;;;8.50;3.45;;;;;;;;;;5077887;28;20039;-85
2022/07/06 12:45:29;;;;;;;6.15;3.20;;;;;;;;;;5094411;28;20136;-83
2022/07/06 12:47:59;;;;;;;4.40;3.40;;;;;;;;;;5095331;28;20020;-86
2022/07/06 12:50:32;;;;;;;6.38;3.65;;;;;;;;;;5095537;28;20027;-79
2022/07/06 12:52:58;;;;;;;10.25;3.80;;;;;;;;;;5095279;28;20074;-85
2022/07/06 12:55:31;;;;;;;6.65;3.50;;;;;;;;;;5095040;28;20028;-85
2022/07/06 12:57:57;;;;;;;8.70;3.42;;;;;;;;;;5094933;28;20363;-81
2022/07/06 13:00:24;;;;;;;3.58;3.10;;;;;;;;;;5094536;28;20016;-81
2022/07/06 13:02:54;;;;;;;3.85;3.17;;;;;;;;;;5094730;28;20102;-81
2022/07/06 13:05:27;;;;;;;5.83;3.10;;;;;;;;;;5094714;28;20031;-82
2022/07/06 13:07:55;;;;;;;3.63;2.80;;;;;;;;;;5094703;28;20065;-80
2022/07/06 13:10:22;;;;;;;6.45;3.97;;;;;;;;;;5094894;28;20115;-82
2022/07/06 13:12:48;;;;;;;6.68;3.45;;;;;;;;;;5094269;28;20036;-82
2022/07/06 13:15:14;;;;;;;5.63;3.63;;;;;;;;;;5094668;28;20035;-81
2022/07/06 13:17:41;;;;;;;4.60;3.10;;;;;;;;;;5094303;28;20020;-82
2022/07/06 13:20:08;;;;;;;4.90;3.85;;;;;;;;;;5094499;28;20027;-82
2022/07/06 13:22:34;;;;;;;5.10;2.92;;;;;;;;;;5094423;28;20022;-81
2022/07/06 13:25:00;;;;;;;7.25;4.88;;;;;;;;;;5094100;28;20032;-82
2022/07/06 13:27:26;;;;;;;4.75;3.45;;;;;;;;;;5075876;28;20020;-82
2022/07/06 13:29:53;;;;;;;4.75;3.33;;;;;;;;;;5093687;28;20092;-82
2022/07/06 13:32:21;;;;;;;5.53;3.90;;;;;;;;;;5093603;28;20055;-81
2022/07/06 13:34:47;;;;;;;4.13;3.35;;;;;;;;;;5075178;28;20394;-80
2022/07/06 13:37:13;;;;;;;5.32;3.55;;;;;;;;;;5093816;28;20028;-81
2022/07/06 13:39:40;;;;;;;3.45;3.05;;;;;;;;;;5093751;28;20024;-80
2022/07/06 13:42:07;;;;;;;6.47;3.10;;;;;;;;;;5093699;28;20050;-83
2022/07/06 13:44:33;;;;;;;4.88;3.20;;;;;;;;;;5093731;28;20101;-73
2022/07/06 13:47:00;;;;;;;5.05;3.50;;;;;;;;;;5093803;28;20023;-81
2022/07/06 13:49:26;;;;;;;5.68;3.20;;;;;;;;;;5094641;28;20024;-83
2022/07/06 13:51:54;;;;;;;5.15;3.10;;;;;;;;;;5094151;28;20032;-86
2022/07/06 13:54:20;;;;;;;4.10;3.58;;;;;;;;;;5094279;28;20035;-85
2022/07/06 13:56:46;;;;;;;5.93;3.83;;;;;;;;;;5093663;28;20024;-82
2022/07/06 13:59:12;;;;;;;7.38;3.58;;;;;;;;;;5093566;28;20052;-81
2022/07/06 14:01:38;;;;;;;5.75;2.85;;;;;;;;;;5094131;28;20127;-84
2022/07/06 14:04:04;;;;;;;4.78;2.78;;;;;;;;;;5093984;28;20020;-85
2022/07/06 14:06:31;;;;;;;4.13;2.90;;;;;;;;;;5093938;28;20028;-76
2022/07/06 14:08:57;;;;;;;7.60;3.20;;;;;;;;;;5094056;28;20031;-84
2022/07/06 14:11:23;;;;;;;4.65;3.33;;;;;;;;;;5075795;28;20047;-85
2022/07/06 14:13:49;;;;;;;3.90;2.90;;;;;;;;;;5093746;28;20048;-81
2022/07/06 14:16:15;;;;;;;2.97;2.63;;;;;;;;;;5093903;28;20028;-85
2022/07/06 14:18:43;;;;;;;8.57;3.85;;;;;;;;;;5093229;28;20027;-80
2022/07/06 14:21:09;;;;;;;7.40;3.60;;;;;;;;;;5093380;28;20024;-83
2022/07/06 14:23:35;;;;;;;4.35;3.17;;;;;;;;;;5075063;28;20032;-79
2022/07/06 14:26:01;;;;;;;3.35;2.83;;;;;;;;;;5093091;28;20028;-80
2022/07/06 14:28:27;;;;;;;4.35;3.00;;;;;;;;;;5093034;28;20120;-74
2022/07/06 14:30:53;;;;;;;8.02;3.70;;;;;;;;;;5093095;28;20040;-81
2022/07/06 14:33:20;;;;;;;4.43;3.60;;;;;;;;;;5093159;28;20023;-80
2022/07/06 14:35:47;;;;;;;8.68;6.50;;;;;;;;;;5093097;28;20025;-80
2022/07/06 14:38:14;;;;;;;22.50;16.40;;;;;;;;;;5092966;28;20030;-79
2022/07/06 14:40:40;;;;;;;5.07;3.35;;;;;;;;;;5093120;28;20016;-79
2022/07/06 14:43:06;;;;;;;3.60;3.00;;;;;;;;;;5093279;28;20036;-77
2022/07/06 14:45:32;;;;;;;7.05;4.20;;;;;;;;;;5094951;28;20089;-84